Terminal Aerodrome Forecast
Issued by NWS Sterling, VA

Current Version | Previous Version | Graphics & Text | Print | Product List | Glossary On
Versions: 1 2 3 4 5 6 7 8 9 10 11 12 13 14 15 16 17 18 19 20 21 22 23 24
000
FTUS41 KLWX 270223 AAC
TAFDCA
TAF AMD
KDCA 270223Z 2702/2724 VRB05KT P6SM BKN050
     FM270500 36005KT P6SM VCSH OVC035
     FM270900 35005KT P6SM OVC035
     FM271500 34012G20KT P6SM BKN035
     FM272300 35008KT P6SM SCT050=

USA.gov is the U.S. government's official web portal to all federal, state and local government web resources and services.